This is the latest recevied weather packets stored in our database for station/object DG9BJA-13. If no packets are shown the sender has not sent any weather packets the latest 1 day(s).
| Time | Temp. | Humidity | Pressure | Rain* | Wind** | Luminosity | Snow |
|---|---|---|---|---|---|---|---|
| 1778010976 | 11.11° C | 92% | 1008.9 hPa | 0 mm | 1.34 m/s, 0° | 0 W/m² | - |
| 1778010376 | 11.11° C | 91% | 1008.9 hPa | 0 mm | 1.34 m/s, 23° | 0 W/m² | - |
| 1778009776 | 11.11° C | 91% | 1008.9 hPa | 0 mm | 1.79 m/s, 45° | 0 W/m² | - |
| 1778009175 | 11.11° C | 91% | 1008.9 hPa | 0 mm | 1.79 m/s, 23° | 0 W/m² | - |
| 1778008575 | 11.11° C | 91% | 1008.9 hPa | 0 mm | 1.79 m/s, 23° | 0 W/m² | - |
| 1778007975 | 11.11° C | 90% | 1008.9 hPa | 0 mm | 1.79 m/s, 45° | 0 W/m² | - |
| 1778007375 | 11.11° C | 90% | 1008.9 hPa | 0 mm | 2.24 m/s, 45° | 0 W/m² | - |
| 1778006775 | 11.11° C | 90% | 1008.9 hPa | 0 mm | 1.79 m/s, 23° | 0 W/m² | - |
| 1778006175 | 11.11° C | 90% | 1008.9 hPa | 0 mm | 1.34 m/s, 45° | 0 W/m² | - |
| 1778005575 | 11.11° C | 90% | 1008.9 hPa | 0 mm | 1.79 m/s, 45° | 5 W/m² | - |
| 1778004975 | 11.11° C | 89% | 1008.9 hPa | 0 mm | 2.68 m/s, 23° | 9 W/m² | - |
| 1778004377 | 11.11° C | 89% | 1008.9 hPa | 0 mm | 2.24 m/s, 45° | 12 W/m² | - |
| 1778003777 | 11.11° C | 89% | 1008.9 hPa | 0 mm | 2.24 m/s, 23° | 12 W/m² | - |
| 1778003177 | 11.11° C | 89% | 1008.9 hPa | 0 mm | 1.79 m/s, 23° | 16 W/m² | - |
| 1778002577 | 11.11° C | 89% | 1008.9 hPa | 0 mm | 2.24 m/s, 45° | 23 W/m² | - |
| 1778001977 | 11.11° C | 88% | 1008.9 hPa | 0 mm | 1.79 m/s, 45° | 28 W/m² | - |
| 1778001377 | 11.11° C | 88% | 1008.9 hPa | 0 mm | 3.58 m/s, 23° | 51 W/m² | - |
| 1778000777 | 11.11° C | 89% | 1009.2 hPa | 0 mm | 2.68 m/s, 45° | 51 W/m² | - |
| 1778000177 | 11.11° C | 89% | 1009.1 hPa | 0 mm | 1.79 m/s, 45° | 46 W/m² | - |
| 1777999577 | 11.11° C | 89% | 1009.1 hPa | 0 mm | 2.68 m/s, 23° | 54 W/m² | - |
| 1777998977 | 11.11° C | 88% | 1009.3 hPa | 0 mm | 2.68 m/s, 23° | 60 W/m² | - |
| 1777998377 | 11.11° C | 89% | 1009.2 hPa | 0 mm | 3.58 m/s, 45° | 83 W/m² | - |
| 1777997777 | 11.11° C | 89% | 1009.2 hPa | 0 mm | 3.58 m/s, 45° | 100 W/m² | - |
| 1777997177 | 11.11° C | 90% | 1009.3 hPa | 0 mm | 3.58 m/s, 45° | 120 W/m² | - |
| 1777996577 | 10.56° C | 91% | 1009.4 hPa | 0 mm | 3.58 m/s, 45° | 125 W/m² | - |
* Rain latest hour (hover to see other rain measurements)
** Current wind speed in m/s (hover to see current wind gust speed)